createdAt,value
2018-10-05T00:00:58.032Z,77.72
2018-10-05T00:03:26.855Z,76.74
2018-10-05T00:05:55.591Z,76.83
2018-10-05T00:08:24.405Z,76.70
2018-10-05T00:10:53.509Z,75.64
2018-10-05T00:13:22.347Z,75.59
2018-10-05T00:15:51.153Z,75.16
2018-10-05T00:18:19.821Z,75.07
2018-10-05T00:20:48.660Z,75.22
2018-10-05T00:23:17.348Z,75.46
2018-10-05T00:25:46.080Z,75.25
2018-10-05T00:28:14.643Z,75.12
2018-10-05T00:30:43.380Z,74.37
2018-10-05T00:33:11.951Z,74.03
2018-10-05T00:35:40.819Z,74.55
2018-10-05T00:38:09.761Z,75.16
2018-10-05T00:40:38.312Z,75.30
2018-10-05T00:43:07.109Z,75.23
2018-10-05T00:45:35.816Z,75.55
2018-10-05T00:48:04.400Z,75.24
2018-10-05T00:50:33.213Z,74.36
2018-10-05T00:53:01.953Z,74.57
2018-10-05T00:55:30.791Z,74.70
2018-10-05T00:57:59.457Z,74.58
2018-10-05T01:00:28.294Z,75.31
2018-10-05T01:02:57.073Z,75.05
2018-10-05T01:05:25.806Z,75.05
2018-10-05T01:07:54.489Z,74.45
2018-10-05T01:10:26.146Z,74.67
2018-10-05T01:12:54.727Z,75.45
2018-10-05T01:15:23.377Z,75.39
2018-10-05T01:17:52.219Z,75.24
2018-10-05T01:20:21.052Z,74.88
2018-10-05T01:22:49.862Z,75.31
2018-10-05T01:25:18.572Z,75.66
2018-10-05T01:27:47.248Z,75.68
2018-10-05T01:30:15.984Z,75.79
2018-10-05T01:32:44.944Z,76.71
2018-10-05T01:35:14.220Z,76.42
2018-10-05T01:37:42.781Z,75.99
2018-10-05T01:40:11.673Z,76.14
2018-10-05T01:42:40.506Z,75.72
2018-10-05T01:45:09.348Z,76.06
2018-10-05T01:47:38.107Z,77.42
2018-10-05T01:50:06.932Z,79.19
2018-10-05T01:52:35.758Z,78.92
2018-10-05T01:55:04.448Z,79.41
2018-10-05T01:57:33.140Z,80.81
2018-10-05T02:00:01.933Z,80.66
2018-10-05T02:02:30.803Z,80.52
2018-10-05T02:04:59.565Z,80.02
2018-10-05T02:07:28.292Z,80.04
2018-10-05T02:09:57.053Z,80.04
2018-10-05T02:12:25.754Z,80.42
2018-10-05T02:14:54.668Z,79.58
2018-10-05T02:17:23.497Z,79.35
2018-10-05T02:19:52.186Z,79.26
2018-10-05T02:22:21.011Z,79.53
2018-10-05T02:24:49.810Z,79.74
2018-10-05T02:27:18.518Z,79.63
2018-10-05T02:29:47.191Z,78.86
2018-10-05T02:32:16.007Z,79.44
2018-10-05T02:34:44.655Z,78.00
2018-10-05T02:37:13.342Z,78.59
2018-10-05T02:39:42.015Z,78.35
2018-10-05T02:42:10.843Z,79.37
2018-10-05T02:44:39.645Z,78.52
2018-10-05T02:47:08.486Z,78.29
2018-10-05T02:49:37.159Z,77.92
2018-10-05T02:52:05.748Z,77.44
2018-10-05T02:54:34.411Z,77.08
2018-10-05T02:57:03.120Z,77.38
2018-10-05T02:59:31.902Z,76.87
2018-10-05T03:02:11.625Z,77.46
2018-10-05T03:04:40.296Z,76.82
2018-10-05T03:07:09.127Z,76.20
2018-10-05T03:09:37.692Z,77.29
2018-10-05T03:12:06.510Z,77.77
2018-10-05T03:14:35.184Z,77.23
2018-10-05T03:17:04.011Z,77.39
2018-10-05T03:19:32.681Z,77.45
2018-10-05T03:22:01.260Z,77.53
2018-10-05T03:24:29.913Z,76.91
2018-10-05T03:26:58.501Z,76.17
2018-10-05T03:29:27.216Z,76.90
2018-10-05T03:31:55.804Z,78.21
2018-10-05T03:34:24.472Z,78.73
2018-10-05T03:36:53.201Z,80.02
2018-10-05T03:39:21.756Z,79.22
2018-10-05T03:41:50.501Z,79.77
2018-10-05T03:44:19.161Z,78.85
2018-10-05T03:46:47.936Z,78.53
2018-10-05T03:49:16.644Z,79.84
2018-10-05T03:51:45.374Z,79.66
2018-10-05T03:54:13.985Z,79.01
2018-10-05T03:56:42.653Z,78.42
2018-10-05T03:59:11.342Z,78.75
2018-10-05T04:01:39.983Z,78.06
2018-10-05T04:04:08.705Z,78.32
2018-10-05T04:06:37.432Z,79.50
2018-10-05T04:09:08.175Z,79.15
2018-10-05T04:11:36.720Z,77.83
2018-10-05T04:14:05.548Z,76.89
2018-10-05T04:16:34.204Z,76.77
2018-10-05T04:19:03.048Z,77.51
2018-10-05T04:21:31.720Z,77.56
2018-10-05T04:24:00.420Z,80.00
2018-10-05T04:26:29.397Z,80.54
2018-10-05T04:28:58.109Z,80.36
2018-10-05T04:31:26.919Z,78.91
2018-10-05T04:33:55.749Z,78.24
2018-10-05T04:36:24.450Z,77.97
2018-10-05T04:38:53.157Z,77.00
2018-10-05T04:41:21.940Z,78.32
2018-10-05T04:43:50.625Z,80.41
2018-10-05T04:46:19.309Z,80.15
2018-10-05T04:48:48.137Z,80.47
2018-10-05T04:51:16.904Z,81.58
2018-10-05T04:53:45.736Z,81.71
2018-10-05T04:56:14.402Z,81.92
2018-10-05T04:58:43.249Z,81.30
2018-10-05T05:01:11.929Z,79.81
2018-10-05T05:03:40.635Z,79.89
2018-10-05T05:06:09.112Z,78.99
2018-10-05T05:08:37.812Z,79.20
2018-10-05T05:11:06.850Z,77.91
2018-10-05T05:13:35.575Z,78.22
2018-10-05T05:16:04.346Z,77.93
2018-10-05T05:18:33.118Z,80.37
2018-10-05T05:21:01.917Z,81.75
2018-10-05T05:23:30.737Z,83.34
2018-10-05T05:25:59.412Z,82.34
2018-10-05T05:28:28.101Z,81.61
2018-10-05T05:30:56.884Z,82.40
2018-10-05T05:33:25.717Z,82.44
2018-10-05T05:35:54.443Z,83.79
2018-10-05T05:38:23.233Z,83.36
2018-10-05T05:40:52.005Z,81.53
2018-10-05T05:43:20.702Z,80.22
2018-10-05T05:45:49.433Z,79.37
2018-10-05T05:48:18.080Z,78.67
2018-10-05T05:50:46.935Z,79.31
2018-10-05T05:53:15.468Z,78.54
2018-10-05T05:55:44.174Z,78.18
2018-10-05T05:58:12.988Z,78.64
2018-10-05T06:00:41.726Z,78.98
2018-10-05T06:03:10.557Z,79.29
2018-10-05T06:05:39.437Z,78.69
2018-10-05T06:08:08.052Z,78.38
2018-10-05T06:10:37.776Z,77.81
2018-10-05T06:13:08.240Z,76.80
2018-10-05T06:15:38.433Z,76.33
2018-10-05T06:18:07.225Z,76.87
2018-10-05T06:20:36.067Z,77.42
2018-10-05T06:23:04.914Z,77.67
2018-10-05T06:25:33.775Z,75.80
2018-10-05T06:28:02.360Z,74.90
2018-10-05T06:30:31.283Z,73.79
2018-10-05T06:33:00.109Z,72.15
2018-10-05T06:35:28.980Z,70.71
2018-10-05T06:37:57.848Z,68.03
2018-10-05T06:40:26.694Z,62.33
2018-10-05T06:42:55.397Z,53.51
2018-10-05T06:45:24.232Z,46.61
2018-10-05T06:47:53.046Z,41.16
2018-10-05T06:50:21.906Z,38.21
2018-10-05T06:52:50.782Z,35.82
2018-10-05T07:02:21.345Z,26.54
2018-10-05T07:04:50.181Z,24.51
2018-10-05T07:07:18.996Z,22.27
2018-10-05T07:09:47.826Z,21.80
2018-10-05T07:12:16.694Z,20.42
2018-10-05T07:14:45.529Z,19.22
2018-10-05T07:17:14.546Z,18.98
2018-10-05T07:19:43.350Z,18.09
2018-10-05T07:22:12.073Z,17.78
2018-10-05T07:24:40.913Z,17.46
2018-10-05T07:27:09.757Z,17.44
2018-10-05T07:29:38.661Z,16.55
2018-10-05T07:32:07.903Z,16.41
2018-10-05T07:41:17.237Z,17.18
2018-10-05T07:43:46.067Z,16.00
2018-10-05T07:48:58.062Z,15.53
2018-10-05T07:51:26.819Z,15.05
2018-10-05T07:53:55.396Z,15.44
2018-10-05T07:56:24.142Z,14.90
2018-10-05T07:58:53.201Z,16.09
2018-10-05T08:01:22.063Z,16.98
2018-10-05T08:03:50.894Z,16.03
2018-10-05T08:06:19.757Z,16.36
2018-10-05T08:09:00.078Z,19.72
2018-10-05T08:11:29.684Z,19.25
2018-10-05T08:13:58.376Z,23.21
2018-10-05T08:16:27.238Z,23.28
2018-10-05T08:18:55.939Z,25.51
2018-10-05T08:21:24.653Z,24.25
2018-10-05T08:23:53.602Z,24.28
2018-10-05T08:26:22.325Z,25.55
2018-10-05T08:28:51.125Z,26.87
2018-10-05T08:31:20.026Z,27.09
2018-10-05T08:33:48.749Z,27.32
2018-10-05T08:36:17.577Z,26.34
2018-10-05T08:38:46.480Z,22.28
2018-10-05T08:41:15.256Z,20.29
2018-10-05T08:43:44.064Z,22.25
2018-10-05T08:46:12.784Z,19.96
2018-10-05T08:48:41.633Z,23.18
2018-10-05T08:51:10.467Z,22.48
2018-10-05T08:53:39.320Z,25.40
2018-10-05T08:56:07.978Z,26.59
2018-10-05T08:58:36.578Z,25.18
2018-10-05T09:01:10.124Z,22.96
2018-10-05T09:03:38.957Z,22.00
2018-10-05T09:06:07.670Z,20.27
2018-10-05T09:08:36.598Z,20.32
2018-10-05T09:11:05.524Z,19.11
2018-10-05T09:13:56.400Z,20.52
2018-10-05T09:16:26.809Z,19.36
2018-10-05T09:19:00.469Z,17.80
2018-10-05T09:21:33.459Z,15.60
2018-10-05T09:24:40.367Z,13.75
2018-10-05T09:27:14.039Z,17.44
2018-10-05T09:29:43.653Z,16.68
2018-10-05T09:32:12.349Z,18.50
2018-10-05T09:34:40.902Z,17.64
2018-10-05T09:37:09.618Z,17.77
2018-10-05T09:39:38.506Z,18.45
2018-10-05T09:42:16.206Z,16.21
2018-10-05T09:44:45.758Z,14.96
2018-10-05T09:47:22.194Z,13.89
2018-10-05T09:49:52.127Z,15.78
2018-10-05T09:52:20.909Z,15.99
2018-10-05T09:54:50.113Z,16.15
2018-10-05T09:57:40.123Z,17.80
2018-10-05T10:00:13.665Z,16.00
2018-10-05T10:02:52.460Z,14.29
2018-10-05T10:05:22.262Z,14.23
2018-10-05T10:08:02.535Z,14.98
2018-10-05T10:10:31.935Z,15.77
2018-10-05T10:13:00.815Z,17.37
2018-10-05T10:15:29.724Z,19.59
2018-10-05T10:17:58.593Z,19.92
2018-10-05T10:20:27.497Z,20.04
2018-10-05T10:22:56.492Z,18.45
2018-10-05T10:25:25.377Z,20.68
2018-10-05T10:27:54.244Z,22.66
2018-10-05T10:30:27.125Z,23.61
2018-10-05T10:32:56.081Z,21.63
2018-10-05T10:35:25.076Z,22.58
2018-10-05T10:37:53.810Z,21.35
2018-10-05T10:40:22.680Z,23.84
2018-10-05T10:42:51.523Z,24.84
2018-10-05T10:45:20.134Z,25.86
2018-10-05T10:47:48.759Z,25.56
2018-10-05T10:50:17.648Z,25.15
2018-10-05T10:52:46.660Z,26.71
2018-10-05T10:55:15.495Z,27.38
2018-10-05T10:57:44.311Z,27.06
2018-10-05T11:00:13.581Z,24.75
2018-10-05T11:02:42.341Z,24.80
2018-10-05T11:05:11.225Z,26.30
2018-10-05T11:07:40.100Z,28.73
2018-10-05T11:10:10.055Z,27.72
2018-10-05T11:12:39.350Z,28.08
2018-10-05T11:15:08.045Z,29.16
2018-10-05T11:17:36.735Z,29.56
2018-10-05T11:20:19.793Z,27.28
2018-10-05T11:22:54.828Z,27.76
2018-10-05T11:25:24.121Z,27.77
2018-10-05T11:27:52.830Z,29.92
2018-10-05T11:30:21.698Z,30.12
2018-10-05T11:32:50.289Z,29.27
2018-10-05T11:35:19.038Z,30.88
2018-10-05T11:37:47.641Z,29.43
2018-10-05T11:40:16.394Z,30.34
2018-10-05T11:42:45.240Z,31.08
2018-10-05T11:45:13.854Z,30.73
2018-10-05T11:47:42.709Z,30.71
2018-10-05T11:50:11.413Z,32.42
2018-10-05T11:52:40.220Z,33.37
2018-10-05T11:55:08.856Z,30.77
2018-10-05T11:57:44.380Z,29.88
2018-10-05T12:00:16.910Z,30.10
2018-10-05T12:02:46.015Z,29.27
2018-10-05T12:05:16.113Z,28.95
2018-10-05T12:07:45.249Z,29.70
2018-10-05T12:10:14.365Z,31.46
2018-10-05T12:12:43.090Z,31.66
2018-10-05T12:15:11.981Z,32.01
2018-10-05T12:17:40.920Z,31.11
2018-10-05T12:20:09.755Z,31.87
2018-10-05T12:22:38.633Z,33.19
2018-10-05T12:25:07.482Z,33.36
2018-10-05T12:27:36.345Z,33.39
2018-10-05T12:30:11.715Z,34.01
2018-10-05T12:32:40.409Z,33.78
2018-10-05T12:35:09.326Z,33.72
2018-10-05T12:37:38.180Z,32.84
2018-10-05T12:40:07.045Z,32.74
2018-10-05T12:42:35.893Z,31.87
2018-10-05T12:45:04.807Z,33.34
2018-10-05T12:47:33.451Z,33.00
2018-10-05T12:50:02.297Z,33.84
2018-10-05T12:52:31.036Z,33.65
2018-10-05T12:54:59.891Z,31.64
2018-10-05T12:57:28.608Z,30.64
2018-10-05T12:59:57.444Z,28.13
2018-10-05T13:02:26.278Z,28.29
2018-10-05T13:04:55.100Z,28.19
2018-10-05T13:07:23.785Z,29.37
2018-10-05T13:09:52.476Z,28.69
2018-10-05T13:12:21.212Z,28.59
2018-10-05T13:14:49.937Z,28.21
2018-10-05T13:17:18.896Z,26.14
2018-10-05T13:19:47.695Z,28.26
2018-10-05T13:22:16.407Z,27.92
2018-10-05T13:24:45.276Z,29.00
2018-10-05T13:27:13.980Z,29.09
2018-10-05T13:29:42.796Z,27.07
2018-10-05T13:32:11.670Z,27.18
2018-10-05T13:34:40.537Z,27.38
2018-10-05T13:37:09.271Z,26.07
2018-10-05T13:39:38.168Z,24.96
2018-10-05T13:42:07.016Z,27.43
2018-10-05T13:44:35.620Z,27.54
2018-10-05T13:47:04.465Z,28.05
2018-10-05T13:49:33.267Z,28.91
2018-10-05T13:52:01.999Z,30.09
2018-10-05T13:54:30.807Z,30.80
2018-10-05T13:56:59.565Z,30.82
2018-10-05T13:59:28.391Z,30.54
2018-10-05T14:01:57.277Z,30.13
2018-10-05T14:04:25.994Z,30.60
2018-10-05T14:06:54.741Z,31.09
2018-10-05T14:09:23.442Z,30.57
2018-10-05T14:11:52.209Z,29.92
2018-10-05T14:14:20.910Z,28.67
2018-10-05T14:16:49.769Z,29.16
2018-10-05T14:19:18.715Z,28.48
2018-10-05T14:21:47.691Z,29.25
2018-10-05T14:24:16.557Z,30.79
2018-10-05T14:26:45.411Z,30.36
2018-10-05T14:29:14.241Z,31.66
2018-10-05T14:31:42.990Z,30.51
2018-10-05T14:34:11.695Z,30.91
2018-10-05T14:36:40.564Z,30.94
2018-10-05T14:39:09.607Z,30.05
2018-10-05T14:41:38.401Z,29.51
2018-10-05T14:44:07.148Z,30.67
2018-10-05T14:46:35.895Z,31.62
2018-10-05T14:49:04.802Z,32.52
2018-10-05T14:51:33.639Z,33.88
2018-10-05T14:54:02.510Z,35.46
2018-10-05T14:56:31.308Z,35.83
2018-10-05T14:59:00.144Z,36.00
2018-10-05T15:01:28.960Z,36.25
2018-10-05T15:03:57.865Z,35.50
2018-10-05T15:06:26.464Z,36.56
2018-10-05T15:08:55.299Z,36.96
2018-10-05T15:11:24.003Z,36.40
2018-10-05T15:13:52.849Z,35.64
2018-10-05T15:16:21.586Z,34.62
2018-10-05T15:18:50.435Z,34.44
2018-10-05T15:21:19.443Z,33.84
2018-10-05T15:23:48.181Z,33.08
2018-10-05T15:26:16.964Z,32.53
2018-10-05T15:28:45.672Z,31.47
2018-10-05T15:31:14.378Z,31.64
2018-10-05T15:33:43.350Z,32.31
2018-10-05T15:36:12.085Z,31.83
2018-10-05T15:38:40.853Z,31.05
2018-10-05T15:41:09.619Z,30.69
2018-10-05T15:43:38.430Z,31.18
2018-10-05T15:46:09.569Z,31.34
2018-10-05T15:48:38.493Z,31.37
2018-10-05T15:51:07.438Z,30.26
2018-10-05T15:53:36.481Z,30.24
2018-10-05T15:56:05.238Z,29.95
2018-10-05T15:58:34.023Z,29.31
2018-10-05T16:01:02.814Z,30.28
2018-10-05T16:03:32.857Z,30.91
2018-10-05T16:06:03.221Z,33.78
2018-10-05T16:08:32.208Z,35.82
2018-10-05T16:11:01.412Z,36.90
2018-10-05T16:13:31.188Z,38.64
2018-10-05T16:16:00.209Z,38.67
2018-10-05T16:18:29.956Z,39.35
2018-10-05T16:20:58.609Z,39.50
2018-10-05T16:23:27.421Z,40.83
2018-10-05T16:25:56.141Z,38.98
2018-10-05T16:28:24.967Z,38.65
2018-10-05T16:30:53.808Z,38.77
2018-10-05T16:33:22.500Z,41.34
2018-10-05T16:35:51.333Z,42.05
2018-10-05T16:38:20.148Z,40.98
2018-10-05T16:40:48.998Z,41.23
2018-10-05T16:43:17.812Z,42.28
2018-10-05T16:45:46.626Z,43.45
2018-10-05T16:48:15.409Z,45.07
2018-10-05T16:50:44.170Z,46.64
2018-10-05T16:53:13.070Z,46.66
2018-10-05T16:55:41.877Z,47.46
2018-10-05T16:58:10.545Z,47.85
2018-10-05T17:00:39.419Z,48.58
2018-10-05T17:03:08.322Z,48.37
2018-10-05T17:05:37.337Z,48.82
2018-10-05T17:08:06.242Z,49.94
2018-10-05T17:10:35.165Z,49.68
2018-10-05T17:13:03.929Z,50.51
2018-10-05T17:15:32.765Z,51.28
2018-10-05T17:18:01.596Z,51.70
2018-10-05T17:20:30.630Z,52.70
2018-10-05T17:23:01.073Z,53.93
2018-10-05T17:25:29.872Z,54.30
2018-10-05T17:27:58.791Z,55.07
2018-10-05T17:30:27.665Z,55.46
2018-10-05T17:32:56.238Z,56.64
2018-10-05T17:35:25.205Z,56.67
2018-10-05T17:37:53.964Z,57.00
2018-10-05T17:40:22.568Z,57.42
2018-10-05T17:42:51.358Z,57.89
2018-10-05T17:45:20.047Z,58.52
2018-10-05T17:47:48.834Z,58.53
2018-10-05T17:50:17.696Z,58.90
2018-10-05T17:52:46.273Z,59.39
2018-10-05T17:55:15.565Z,59.51
2018-10-05T17:57:44.327Z,60.03
2018-10-05T18:00:14.129Z,59.83
2018-10-05T18:02:42.820Z,60.16
2018-10-05T18:05:11.417Z,60.12
2018-10-05T18:07:40.161Z,60.79
2018-10-05T18:10:08.989Z,60.98
2018-10-05T18:12:37.861Z,61.76
2018-10-05T18:15:06.670Z,61.96
2018-10-05T18:17:35.521Z,61.54
2018-10-05T18:20:04.388Z,61.92
2018-10-05T18:22:33.210Z,62.10
2018-10-05T18:25:02.069Z,62.62
2018-10-05T18:27:30.874Z,62.80
2018-10-05T18:29:59.692Z,63.25
2018-10-05T18:32:28.456Z,63.10
2018-10-05T18:35:12.147Z,63.84
2018-10-05T18:37:47.041Z,63.66
2018-10-05T18:40:16.616Z,63.85
2018-10-05T18:42:45.341Z,63.84
2018-10-05T18:45:14.253Z,64.29
2018-10-05T18:47:43.118Z,64.26
2018-10-05T18:50:11.973Z,64.93
2018-10-05T18:52:40.787Z,65.02
2018-10-05T18:55:09.486Z,65.17
2018-10-05T18:57:38.250Z,65.00
2018-10-05T19:00:07.624Z,64.71
2018-10-05T19:02:36.521Z,64.49
2018-10-05T19:05:05.208Z,65.06
2018-10-05T19:07:33.928Z,64.73
2018-10-05T19:10:02.733Z,64.88
2018-10-05T19:12:31.416Z,64.97
2018-10-05T19:15:00.112Z,65.37
2018-10-05T19:17:28.977Z,65.87
2018-10-05T19:19:58.030Z,66.16
2018-10-05T19:22:26.961Z,65.98
2018-10-05T19:24:55.720Z,66.32
2018-10-05T19:27:24.568Z,66.37
2018-10-05T19:29:53.306Z,66.56
2018-10-05T19:32:22.145Z,66.32
2018-10-05T19:34:50.872Z,66.62
2018-10-05T19:37:19.676Z,66.52
2018-10-05T19:39:48.324Z,66.40
2018-10-05T19:42:17.036Z,66.74
2018-10-05T19:44:45.600Z,67.39
2018-10-05T19:47:14.364Z,67.57
2018-10-05T19:49:43.065Z,67.33
2018-10-05T19:52:11.894Z,67.58
2018-10-05T19:54:40.593Z,68.24
2018-10-05T19:57:09.473Z,68.14
2018-10-05T19:59:38.129Z,68.03
2018-10-05T20:02:07.019Z,67.86
2018-10-05T20:04:35.789Z,68.23
2018-10-05T20:07:04.655Z,68.59
2018-10-05T20:09:33.378Z,68.50
2018-10-05T20:12:02.102Z,68.77
2018-10-05T20:14:30.768Z,69.09
2018-10-05T20:16:59.733Z,69.27
2018-10-05T20:19:28.628Z,69.36
2018-10-05T20:21:57.484Z,69.51
2018-10-05T20:24:26.453Z,69.27
2018-10-05T20:26:55.155Z,69.86
2018-10-05T20:29:24.085Z,69.75
2018-10-05T20:31:55.016Z,69.79
2018-10-05T20:34:23.853Z,69.82
2018-10-05T20:36:52.836Z,69.97
2018-10-05T20:39:21.570Z,69.98
2018-10-05T20:41:50.412Z,70.15
2018-10-05T20:44:19.190Z,70.09
2018-10-05T20:46:47.982Z,69.98
2018-10-05T20:49:16.710Z,70.39
2018-10-05T20:51:45.646Z,70.45
2018-10-05T20:54:14.421Z,70.55
2018-10-05T20:56:43.329Z,70.79
2018-10-05T20:59:12.073Z,71.07
2018-10-05T21:01:40.860Z,70.78
2018-10-05T21:04:09.770Z,71.42
2018-10-05T21:06:38.560Z,71.15
2018-10-05T21:09:08.914Z,70.92
2018-10-05T21:11:37.717Z,71.15
2018-10-05T21:14:06.752Z,71.78
2018-10-05T21:16:35.695Z,71.27
2018-10-05T21:19:04.826Z,71.23
2018-10-05T21:21:33.742Z,71.25
2018-10-05T21:24:02.657Z,71.54
2018-10-05T21:26:31.519Z,70.82
2018-10-05T21:29:00.356Z,71.02
2018-10-05T21:31:29.295Z,70.74
2018-10-05T21:33:58.180Z,71.12
2018-10-05T21:36:27.023Z,70.89
2018-10-05T21:38:55.906Z,70.76
2018-10-05T21:41:24.668Z,71.70
2018-10-05T21:43:53.534Z,71.67
2018-10-05T21:46:22.492Z,71.55
2018-10-05T21:48:51.204Z,71.92
2018-10-05T21:51:20.067Z,71.66
2018-10-05T21:53:48.931Z,71.69
2018-10-05T21:56:17.874Z,71.85
2018-10-05T21:58:46.732Z,71.67
2018-10-05T22:01:15.434Z,71.04
2018-10-05T22:03:48.196Z,71.31
2018-10-05T22:06:18.504Z,71.98
2018-10-05T22:08:47.374Z,71.66
2018-10-05T22:11:16.385Z,71.58
2018-10-05T22:13:45.364Z,71.52
2018-10-05T22:16:14.346Z,71.08
2018-10-05T22:18:43.378Z,71.35
2018-10-05T22:21:12.183Z,71.58
2018-10-05T22:23:41.019Z,73.23
2018-10-05T22:26:09.934Z,73.65
2018-10-05T22:28:38.747Z,73.74
2018-10-05T22:31:07.321Z,73.78
2018-10-05T22:33:36.144Z,74.32
2018-10-05T22:36:05.067Z,74.87
2018-10-05T22:38:34.031Z,74.32
2018-10-05T22:41:02.878Z,74.34
2018-10-05T22:43:31.707Z,75.73
2018-10-05T22:46:00.519Z,75.55
2018-10-05T22:48:29.327Z,76.23
2018-10-05T22:50:58.297Z,77.23
2018-10-05T22:53:27.165Z,76.87
2018-10-05T22:55:55.834Z,76.60
2018-10-05T22:58:24.628Z,75.32
2018-10-05T23:00:53.453Z,76.13
2018-10-05T23:03:22.289Z,76.12
2018-10-05T23:05:51.883Z,74.62
2018-10-05T23:08:20.860Z,74.35
2018-10-05T23:10:50.071Z,74.44
2018-10-05T23:13:18.962Z,74.46
2018-10-05T23:15:47.775Z,74.28
2018-10-05T23:18:16.530Z,74.51
2018-10-05T23:20:45.381Z,74.96
2018-10-05T23:23:14.176Z,75.34
2018-10-05T23:25:43.020Z,75.16
2018-10-05T23:28:11.860Z,75.26
2018-10-05T23:30:40.593Z,75.42
2018-10-05T23:33:09.382Z,75.93
2018-10-05T23:35:38.245Z,76.09
2018-10-05T23:38:07.695Z,76.51
2018-10-05T23:40:36.422Z,76.55
2018-10-05T23:43:05.100Z,76.30
2018-10-05T23:46:58.058Z,76.33
2018-10-05T23:49:26.752Z,76.73
2018-10-05T23:51:55.977Z,76.48
2018-10-05T23:54:24.763Z,76.63
2018-10-05T23:56:53.593Z,76.88
2018-10-05T23:59:22.299Z,76.39
